Time;durP1;ratioP1;P1;durP2;ratioP2;P2;SDS_P1;SDS_P2;PMS_P1;PMS_P2;Temp;Humidity;BMP_temperature;BMP_pressure;BME280_temperature;BME280_humidity;BME280_pressure;Samples;Min_cycle;Max_cycle;Signal;HPM_P1;HPM_P2
2021/12/06 00:00:44;;;;;;;36.53;23.85;;;3.30;99.90;;;;;;4984162;28;20042;-76
2021/12/06 00:03:14;;;;;;;34.97;24.30;;;3.30;99.90;;;;;;4985433;28;20045;-77
2021/12/06 00:05:40;;;;;;;35.85;23.73;;;3.20;99.90;;;;;;5004262;28;20589;-76
2021/12/06 00:08:05;;;;;;;36.67;25.08;;;3.20;99.90;;;;;;4982700;28;20045;-76
2021/12/06 00:10:32;;;;;;;35.50;25.10;;;3.20;99.90;;;;;;4983038;28;20053;-76
2021/12/06 00:12:58;;;;;;;38.08;26.13;;;3.20;99.90;;;;;;4984957;28;20065;-77
2021/12/06 00:15:26;;;;;;;37.70;26.25;;;3.20;99.90;;;;;;4987965;28;20062;-76
2021/12/06 00:17:51;;;;;;;34.28;25.77;;;3.20;99.90;;;;;;4981423;28;20515;-76
2021/12/06 00:20:18;;;;;;;37.60;25.67;;;3.20;99.90;;;;;;4989043;28;20048;-77
2021/12/06 00:22:44;;;;;;;38.70;26.45;;;3.20;99.90;;;;;;4986402;28;20125;-76
2021/12/06 00:25:11;;;;;;;37.08;26.95;;;3.20;99.90;;;;;;4980622;28;20096;-76
2021/12/06 00:27:39;;;;;;;41.95;27.52;;;3.10;99.90;;;;;;4996211;28;20040;-76
2021/12/06 00:30:09;;;;;;;42.55;28.05;;;3.10;99.90;;;;;;4985582;28;20034;-77
2021/12/06 00:32:35;;;;;;;39.45;27.27;;;3.10;99.90;;;;;;4985663;28;20041;-76
2021/12/06 00:35:01;;;;;;;43.95;28.92;;;3.10;99.90;;;;;;4987572;28;20048;-76
2021/12/06 00:37:34;;;;;;;44.92;29.30;;;3.10;99.90;;;;;;4984596;28;20042;-76
2021/12/06 00:40:06;;;;;;;43.55;29.55;;;3.10;99.90;;;;;;4996415;28;20038;-76
2021/12/06 00:42:33;;;;;;;48.67;30.45;;;3.10;99.90;;;;;;4992891;28;20050;-76
2021/12/06 00:45:01;;;;;;;47.85;30.10;;;3.10;99.90;;;;;;4988909;28;20036;-76
2021/12/06 00:47:27;;;;;;;48.67;30.75;;;3.10;99.90;;;;;;4989510;28;20038;-77
2021/12/06 00:49:54;;;;;;;48.40;32.00;;;3.10;99.90;;;;;;4993504;28;20037;-76
2021/12/06 00:52:20;;;;;;;47.30;30.77;;;3.00;99.90;;;;;;4974357;28;20099;-76
2021/12/06 00:54:45;;;;;;;50.42;32.13;;;3.00;99.90;;;;;;4995699;28;20041;-76
2021/12/06 00:57:13;;;;;;;48.75;30.90;;;3.00;99.90;;;;;;4993609;28;20069;-77
2021/12/06 00:59:39;;;;;;;52.47;31.83;;;3.00;99.90;;;;;;4976579;28;20058;-75
2021/12/06 01:02:06;;;;;;;49.63;30.73;;;3.00;99.90;;;;;;4994121;28;20040;-76
2021/12/06 01:04:35;;;;;;;46.20;29.70;;;3.00;99.90;;;;;;4987263;28;20044;-76
2021/12/06 01:07:01;;;;;;;50.08;31.15;;;3.00;99.90;;;;;;4989850;28;20042;-76
2021/12/06 01:09:27;;;;;;;50.67;31.30;;;3.00;99.90;;;;;;4985667;28;20046;-76
2021/12/06 01:11:53;;;;;;;54.53;31.17;;;3.00;99.90;;;;;;4995256;28;20069;-76
2021/12/06 01:14:19;;;;;;;49.42;31.15;;;3.00;99.90;;;;;;4985620;28;20065;-76
2021/12/06 01:16:45;;;;;;;50.40;30.48;;;3.10;99.90;;;;;;4993146;28;20053;-76
2021/12/06 01:19:11;;;;;;;49.35;31.38;;;3.00;99.90;;;;;;4987618;28;20046;-76
2021/12/06 01:24:42;;;;;;;50.70;31.05;;;3.00;99.90;;;;;;4965508;28;20046;-75
2021/12/06 01:40:19;;;;;;;51.20;31.10;;;3.00;99.90;;;;;;4986234;28;20042;-76
2021/12/06 01:42:45;;;;;;;47.63;30.45;;;3.00;99.90;;;;;;4992400;28;20034;-77
2021/12/06 01:45:10;;;;;;;50.13;31.48;;;3.00;99.90;;;;;;4973868;28;20042;-75
2021/12/06 01:47:39;;;;;;;49.25;31.13;;;3.00;99.90;;;;;;4988333;28;20046;-76
2021/12/06 01:50:10;;;;;;;48.58;29.40;;;3.10;99.90;;;;;;4986330;28;20042;-75
2021/12/06 01:52:42;;;;;;;46.30;28.83;;;3.10;99.90;;;;;;4993753;28;20128;-76
2021/12/06 01:55:12;;;;;;;45.87;28.60;;;3.10;99.90;;;;;;4993608;28;20046;-76
2021/12/06 01:57:38;;;;;;;46.47;28.42;;;3.10;99.90;;;;;;4993829;28;20084;-75
2021/12/06 02:00:08;;;;;;;51.08;31.15;;;3.10;99.90;;;;;;4994629;28;20065;-76
2021/12/06 02:02:34;;;;;;;48.85;29.98;;;3.10;99.90;;;;;;4990411;28;20038;-75
2021/12/06 02:05:00;;;;;;;46.50;28.67;;;3.10;99.90;;;;;;4991902;28;20040;-75
2021/12/06 02:07:27;;;;;;;50.17;29.50;;;3.10;99.90;;;;;;4994222;28;20060;-76
2021/12/06 02:09:54;;;;;;;48.00;28.90;;;3.10;99.90;;;;;;4987727;28;20041;-75
2021/12/06 02:12:20;;;;;;;45.25;29.08;;;3.10;99.90;;;;;;4991281;28;20184;-75
2021/12/06 02:15:02;;;;;;;45.22;28.75;;;3.10;99.90;;;;;;4986798;28;20125;-76
2021/12/06 02:17:33;;;;;;;46.92;28.58;;;3.10;99.90;;;;;;4976556;28;20485;-76
2021/12/06 02:20:26;;;;;;;48.65;29.13;;;3.10;99.90;;;;;;4984542;28;20044;-75
2021/12/06 02:22:52;;;;;;;47.90;28.13;;;3.10;99.90;;;;;;4989072;28;20121;-75
2021/12/06 02:25:19;;;;;;;46.05;28.30;;;3.10;99.90;;;;;;4991567;28;20125;-75
2021/12/06 02:27:47;;;;;;;44.30;27.40;;;3.10;99.90;;;;;;4985648;28;20063;-76
2021/12/06 02:30:15;;;;;;;43.63;28.15;;;3.10;99.90;;;;;;4963268;28;20045;-76
2021/12/06 02:32:42;;;;;;;45.60;28.38;;;3.10;99.90;;;;;;4990960;28;20045;-75
2021/12/06 02:35:13;;;;;;;48.47;30.05;;;3.10;99.90;;;;;;4983114;28;20046;-77
2021/12/06 02:37:39;;;;;;;45.60;28.80;;;3.10;99.90;;;;;;4975891;28;20046;-75
2021/12/06 02:40:10;;;;;;;45.25;29.45;;;3.10;99.90;;;;;;4984829;28;20045;-76
2021/12/06 02:42:37;;;;;;;45.90;28.90;;;3.10;99.90;;;;;;4985688;28;20038;-76
2021/12/06 02:45:05;;;;;;;44.92;27.92;;;3.10;99.90;;;;;;5004119;28;20042;-76
2021/12/06 02:47:31;;;;;;;46.35;28.67;;;3.10;99.90;;;;;;4983312;28;20127;-76
2021/12/06 02:50:02;;;;;;;47.92;28.50;;;3.10;99.90;;;;;;4985652;28;20062;-77
2021/12/06 02:52:28;;;;;;;46.85;29.30;;;3.00;99.90;;;;;;4982703;28;20045;-75
2021/12/06 02:54:57;;;;;;;45.75;29.05;;;3.10;99.90;;;;;;4986760;28;20038;-75
2021/12/06 02:57:33;;;;;;;46.05;28.17;;;3.10;99.90;;;;;;4991086;28;20053;-77
2021/12/06 02:59:59;;;;;;;48.03;29.13;;;3.10;99.90;;;;;;4986102;28;20109;-75
2021/12/06 03:02:26;;;;;;;46.05;28.00;;;3.10;99.90;;;;;;4993971;28;20184;-76
2021/12/06 03:04:52;;;;;;;45.78;27.95;;;3.00;99.90;;;;;;4981994;28;20042;-76
2021/12/06 03:07:21;;;;;;;45.03;28.58;;;3.00;99.90;;;;;;4991465;28;20044;-76
2021/12/06 03:09:51;;;;;;;44.30;27.20;;;3.00;99.90;;;;;;4978210;28;20111;-76
2021/12/06 03:12:21;;;;;;;49.65;28.80;;;3.00;99.90;;;;;;4980287;28;20045;-77
2021/12/06 03:14:54;;;;;;;48.50;29.05;;;3.00;99.90;;;;;;4982658;28;20045;-76
2021/12/06 03:17:23;;;;;;;48.13;28.55;;;3.10;99.90;;;;;;4986936;28;20056;-75
2021/12/06 03:19:49;;;;;;;47.28;27.98;;;3.10;99.90;;;;;;4988199;28;20041;-75
2021/12/06 03:22:15;;;;;;;48.53;28.88;;;3.10;99.90;;;;;;4985905;28;20040;-75
2021/12/06 03:24:42;;;;;;;51.13;29.42;;;3.00;99.90;;;;;;4988131;28;20076;-76
2021/12/06 03:27:09;;;;;;;48.03;28.33;;;3.10;99.90;;;;;;4986963;28;20117;-76
2021/12/06 03:29:35;;;;;;;46.47;28.25;;;3.10;99.90;;;;;;4970339;28;20045;-76
2021/12/06 03:32:02;;;;;;;52.97;29.58;;;3.10;99.90;;;;;;4987027;28;20042;-76
2021/12/06 03:34:29;;;;;;;50.05;29.27;;;3.10;99.90;;;;;;4991820;28;20042;-75
2021/12/06 03:36:56;;;;;;;55.80;30.50;;;3.10;99.90;;;;;;4981585;28;20045;-76
2021/12/06 03:39:26;;;;;;;53.22;31.67;;;3.10;99.90;;;;;;4983776;28;20080;-76
2021/12/06 03:41:55;;;;;;;55.35;30.88;;;3.10;99.90;;;;;;4989934;28;20046;-76
2021/12/06 03:44:22;;;;;;;58.55;31.33;;;3.10;99.90;;;;;;4986491;28;20042;-75
2021/12/06 03:46:54;;;;;;;59.08;30.70;;;3.10;99.90;;;;;;4989100;28;20524;-77
2021/12/06 03:49:20;;;;;;;57.10;31.23;;;3.10;99.90;;;;;;4993724;28;20141;-76
2021/12/06 03:51:47;;;;;;;62.38;32.72;;;3.10;99.90;;;;;;4991157;28;20080;-76
2021/12/06 03:54:18;;;;;;;61.65;32.67;;;3.10;99.90;;;;;;4972391;28;20038;-76
2021/12/06 03:56:44;;;;;;;62.40;33.83;;;3.10;99.90;;;;;;4984248;28;20045;-75
2021/12/06 03:59:10;;;;;;;58.75;31.75;;;3.10;99.90;;;;;;4983711;28;20034;-76
2021/12/06 04:01:37;;;;;;;64.45;32.60;;;3.10;99.90;;;;;;4984254;28;20034;-76
2021/12/06 04:04:04;;;;;;;61.03;32.38;;;3.10;99.90;;;;;;4985935;28;20412;-76
2021/12/06 04:06:31;;;;;;;62.05;31.90;;;3.10;99.90;;;;;;4969540;28;20248;-76
2021/12/06 04:08:57;;;;;;;59.15;32.40;;;3.10;99.90;;;;;;4982436;28;20088;-76
2021/12/06 04:11:22;;;;;;;64.18;34.03;;;3.10;99.90;;;;;;4973155;28;20042;-76
2021/12/06 04:13:48;;;;;;;63.15;33.78;;;3.00;99.90;;;;;;4965815;28;22007;-75
2021/12/06 04:16:14;;;;;;;73.75;35.13;;;3.00;99.90;;;;;;4990107;28;20046;-75
2021/12/06 04:18:40;;;;;;;65.32;33.85;;;3.10;99.90;;;;;;4973602;28;20049;-75
2021/12/06 04:21:06;;;;;;;65.18;34.05;;;3.00;99.90;;;;;;4984807;28;20112;-75
2021/12/06 04:23:33;;;;;;;68.70;34.67;;;3.10;99.90;;;;;;4989857;28;20764;-76
2021/12/06 04:25:59;;;;;;;65.80;33.67;;;3.10;99.90;;;;;;4989240;28;20061;-77
2021/12/06 04:28:28;;;;;;;67.22;34.85;;;3.10;99.90;;;;;;4966037;28;20502;-76
2021/12/06 04:30:55;;;;;;;63.08;31.67;;;3.10;99.90;;;;;;4991136;28;20084;-75
2021/12/06 04:33:21;;;;;;;65.05;33.53;;;3.10;99.90;;;;;;4974036;28;20038;-76
2021/12/06 04:35:47;;;;;;;61.60;32.28;;;3.10;99.90;;;;;;4983396;28;20042;-76
2021/12/06 04:38:14;;;;;;;68.30;33.60;;;3.10;99.90;;;;;;4984988;28;20066;-76
2021/12/06 04:40:40;;;;;;;70.07;33.90;;;3.10;99.90;;;;;;4990247;28;20046;-77
2021/12/06 04:43:07;;;;;;;65.75;33.85;;;3.10;99.90;;;;;;4966415;28;20126;-76
2021/12/06 04:45:33;;;;;;;67.15;34.08;;;3.20;99.90;;;;;;4979906;28;20034;-76
2021/12/06 04:47:59;;;;;;;68.40;34.03;;;3.10;99.90;;;;;;4969814;28;20066;-75
2021/12/06 04:50:30;;;;;;;72.25;33.90;;;3.10;99.90;;;;;;4969441;28;20045;-76
2021/12/06 04:52:58;;;;;;;71.18;33.80;;;3.10;99.90;;;;;;4980798;28;20172;-76
2021/12/06 04:55:54;;;;;;;76.53;35.33;;;3.10;99.90;;;;;;4976821;28;20057;-76
2021/12/06 04:58:29;;;;;;;69.65;34.20;;;3.10;99.90;;;;;;5002528;28;20405;-76
2021/12/06 05:01:06;;;;;;;73.20;34.30;;;3.10;99.90;;;;;;4985711;28;20029;-75
2021/12/06 05:03:33;;;;;;;70.10;33.95;;;3.10;99.90;;;;;;4985248;28;20034;-76
2021/12/06 05:06:07;;;;;;;71.93;34.78;;;3.10;99.90;;;;;;4966904;28;20137;-76
2021/12/06 05:08:38;;;;;;;75.45;33.38;;;3.10;99.90;;;;;;4987583;28;20050;-76
2021/12/06 05:11:05;;;;;;;76.93;33.30;;;3.10;99.90;;;;;;4997028;28;20038;-75
2021/12/06 05:13:32;;;;;;;75.32;35.80;;;3.10;99.90;;;;;;4983935;28;20085;-76
2021/12/06 05:15:57;;;;;;;75.43;33.00;;;3.10;99.90;;;;;;4973927;28;20052;-75
2021/12/06 05:18:24;;;;;;;80.90;36.47;;;3.10;99.90;;;;;;4978798;28;20485;-75
2021/12/06 05:20:50;;;;;;;75.18;35.28;;;3.10;99.90;;;;;;4990494;28;20042;-75
2021/12/06 05:23:18;;;;;;;80.13;35.70;;;3.10;99.90;;;;;;4989589;28;20109;-75
2021/12/06 05:25:44;;;;;;;93.43;37.97;;;3.10;99.90;;;;;;4994646;28;20084;-75
2021/12/06 05:28:11;;;;;;;89.50;38.47;;;3.00;99.90;;;;;;4996883;28;20072;-76
2021/12/06 05:30:38;;;;;;;83.82;36.28;;;3.00;99.90;;;;;;4979047;28;20045;-75
2021/12/06 05:33:06;;;;;;;86.32;36.28;;;3.00;99.90;;;;;;4973482;28;20049;-75
2021/12/06 05:35:33;;;;;;;93.30;37.67;;;3.00;99.90;;;;;;4991302;28;20042;-75
2021/12/06 05:38:00;;;;;;;90.28;37.92;;;3.00;99.90;;;;;;4993261;28;20148;-76
2021/12/06 05:40:33;;;;;;;93.45;38.65;;;3.00;99.90;;;;;;4976256;28;20095;-76
2021/12/06 05:42:59;;;;;;;;;;;3.00;99.90;;;;;;4980177;28;20095;-76
2021/12/06 05:45:27;;;;;;;84.00;34.45;;;3.00;99.90;;;;;;4974120;28;20292;-76
2021/12/06 05:47:54;;;;;;;86.75;37.10;;;3.00;99.90;;;;;;4978120;28;20049;-76
2021/12/06 05:50:22;;;;;;;90.13;37.13;;;3.00;99.90;;;;;;4989146;28;20042;-76
2021/12/06 05:52:52;;;;;;;87.63;37.08;;;3.00;99.90;;;;;;4986775;28;20045;-76
2021/12/06 05:55:19;;;;;;;90.60;37.90;;;3.10;99.90;;;;;;4996285;28;20042;-76
2021/12/06 05:57:45;;;;;;;100.10;40.85;;;3.10;99.90;;;;;;4996309;28;20171;-76
2021/12/06 06:00:15;;;;;;;99.18;39.85;;;3.10;99.90;;;;;;4993148;28;20038;-76
2021/12/06 06:02:41;;;;;;;95.78;40.45;;;3.10;99.90;;;;;;4995229;28;20046;-76
2021/12/06 06:05:08;;;;;;;95.93;38.50;;;3.00;99.90;;;;;;4980205;28;20038;-76
2021/12/06 06:07:33;;;;;;;98.13;38.55;;;3.00;99.90;;;;;;4982968;28;20038;-76
2021/12/06 06:09:59;;;;;;;105.28;41.40;;;3.10;99.90;;;;;;4977455;28;20045;-76
2021/12/06 06:12:26;;;;;;;102.47;40.60;;;3.00;99.90;;;;;;4994690;28;20042;-76
2021/12/06 06:14:53;;;;;;;103.85;40.13;;;3.00;99.90;;;;;;4995682;28;20038;-76
2021/12/06 06:17:19;;;;;;;106.55;40.65;;;3.00;99.90;;;;;;4985997;28;20124;-76
2021/12/06 06:19:50;;;;;;;105.78;41.25;;;3.10;99.90;;;;;;4992648;28;20049;-76
2021/12/06 06:22:16;;;;;;;111.40;41.92;;;3.00;99.90;;;;;;4988765;28;20035;-76
2021/12/06 06:24:41;;;;;;;101.97;41.95;;;3.10;99.90;;;;;;4985939;28;20034;-76
2021/12/06 06:27:08;;;;;;;100.65;39.97;;;3.10;99.90;;;;;;4993220;28;20121;-76
2021/12/06 06:29:35;;;;;;;98.90;40.47;;;3.10;99.90;;;;;;4995257;28;20037;-76
2021/12/06 06:32:01;;;;;;;95.40;39.88;;;3.00;99.90;;;;;;4988588;28;20049;-76
2021/12/06 06:34:27;;;;;;;93.88;39.03;;;3.10;99.90;;;;;;4971381;28;20104;-76
2021/12/06 06:36:53;;;;;;;97.78;39.47;;;3.00;99.90;;;;;;4981161;28;20042;-76
2021/12/06 06:39:21;;;;;;;84.63;37.45;;;3.00;99.90;;;;;;4990475;28;20080;-75
2021/12/06 06:41:48;;;;;;;86.50;36.10;;;3.00;99.90;;;;;;4980236;28;20040;-76
2021/12/06 06:44:15;;;;;;;94.72;37.20;;;3.00;99.90;;;;;;4992976;28;20041;-76
2021/12/06 06:46:42;;;;;;;86.30;37.17;;;3.00;99.90;;;;;;4984492;28;20052;-76
2021/12/06 06:49:09;;;;;;;82.75;35.90;;;3.00;99.90;;;;;;4994888;28;20049;-76
2021/12/06 06:51:35;;;;;;;85.95;36.33;;;3.00;99.90;;;;;;4976621;28;20044;-76
2021/12/06 06:54:01;;;;;;;87.43;36.65;;;3.00;99.90;;;;;;4989081;28;20403;-76
2021/12/06 06:56:27;;;;;;;85.50;35.83;;;3.00;99.90;;;;;;5009981;28;20116;-76
2021/12/06 06:58:53;;;;;;;88.38;35.65;;;3.00;99.90;;;;;;4993885;28;20041;-77
2021/12/06 07:01:19;;;;;;;82.43;35.22;;;3.00;99.90;;;;;;4985965;28;20070;-76
2021/12/06 07:03:45;;;;;;;85.32;35.22;;;3.00;99.90;;;;;;4987343;28;20096;-76
2021/12/06 07:06:11;;;;;;;81.63;35.40;;;3.00;99.90;;;;;;4992138;28;20451;-76
2021/12/06 07:08:36;;;;;;;83.82;36.35;;;2.90;99.90;;;;;;4997590;28;20125;-76
2021/12/06 07:11:04;;;;;;;86.97;34.95;;;2.90;99.90;;;;;;4983341;28;20069;-76
2021/12/06 07:13:36;;;;;;;79.45;35.05;;;2.90;99.90;;;;;;4985459;28;20038;-76
2021/12/06 07:16:03;;;;;;;90.15;35.80;;;2.90;99.90;;;;;;4975895;28;20038;-76
2021/12/06 07:18:29;;;;;;;83.75;36.00;;;2.90;99.90;;;;;;4976115;28;20038;-76
2021/12/06 07:20:54;;;;;;;78.63;35.97;;;2.80;99.90;;;;;;4989876;28;20080;-76
2021/12/06 07:23:20;;;;;;;85.50;36.10;;;2.90;99.90;;;;;;5011250;28;20049;-76
2021/12/06 07:25:46;;;;;;;75.47;33.50;;;2.90;99.90;;;;;;4979076;28;20124;-75
2021/12/06 07:28:11;;;;;;;81.68;35.03;;;2.90;99.90;;;;;;4981829;28;20141;-76
2021/12/06 07:30:37;;;;;;;86.75;35.35;;;2.90;99.90;;;;;;4988053;28;20042;-76
2021/12/06 07:33:03;;;;;;;77.03;33.78;;;2.80;99.90;;;;;;4994743;28;20042;-76
2021/12/06 07:35:29;;;;;;;77.47;33.95;;;2.80;99.90;;;;;;4967340;28;20091;-76
2021/12/06 07:37:56;;;;;;;72.93;33.42;;;2.80;99.90;;;;;;4994983;28;20046;-76
2021/12/06 07:40:22;;;;;;;85.65;34.78;;;2.80;99.90;;;;;;4993479;28;20440;-76
2021/12/06 07:42:48;;;;;;;74.72;33.60;;;2.80;99.90;;;;;;5009701;28;20037;-76
2021/12/06 07:45:15;;;;;;;78.07;33.30;;;2.80;99.90;;;;;;4994267;28;20049;-76
2021/12/06 07:47:41;;;;;;;82.47;34.08;;;2.70;99.90;;;;;;4994509;28;20034;-76
2021/12/06 07:50:11;;;;;;;83.68;34.92;;;2.70;99.90;;;;;;4988643;28;20052;-75
2021/12/06 07:52:37;;;;;;;85.63;34.67;;;2.70;99.90;;;;;;4988247;28;20057;-76
2021/12/06 07:55:09;;;;;;;81.03;34.90;;;2.70;99.90;;;;;;4968022;28;20034;-75
2021/12/06 07:57:35;;;;;;;81.35;34.22;;;2.70;99.90;;;;;;4990929;28;20045;-76
2021/12/06 08:00:04;;;;;;;80.03;34.70;;;2.70;99.90;;;;;;4990408;28;20046;-76
2021/12/06 08:02:29;;;;;;;76.45;34.15;;;2.70;99.90;;;;;;4977827;28;20088;-75
2021/12/06 08:05:29;;;;;;;74.82;33.67;;;2.70;99.90;;;;;;4982917;28;20432;-76
2021/12/06 08:07:47;;;;;;;74.32;32.90;;;2.70;99.90;;;;;;4972929;28;20504;-76
2021/12/06 08:10:13;;;;;;;77.47;33.45;;;2.70;99.90;;;;;;4992968;28;20129;-76
2021/12/06 08:12:39;;;;;;;72.68;33.58;;;2.70;99.90;;;;;;4990721;28;20042;-76
2021/12/06 08:15:05;;;;;;;76.03;35.22;;;2.70;99.90;;;;;;4977427;28;20153;-76
2021/12/06 08:17:31;;;;;;;78.30;35.17;;;2.60;99.90;;;;;;5009947;28;20045;-76
2021/12/06 08:19:57;;;;;;;80.38;35.05;;;2.60;99.90;;;;;;4990173;28;20041;-76
2021/12/06 08:22:22;;;;;;;77.10;35.45;;;2.70;99.90;;;;;;4992696;28;20042;-75
2021/12/06 08:24:48;;;;;;;79.60;35.03;;;2.60;99.90;;;;;;4963185;28;20035;-75
2021/12/06 08:27:14;;;;;;;82.03;37.83;;;2.70;99.90;;;;;;4988667;28;20037;-75
2021/12/06 08:29:39;;;;;;;96.40;42.15;;;2.60;99.90;;;;;;4991636;28;20463;-76
2021/12/06 08:32:07;;;;;;;101.18;46.05;;;2.70;99.90;;;;;;4985291;28;20121;-76
2021/12/06 08:34:33;;;;;;;120.32;49.17;;;2.70;99.90;;;;;;4983950;28;20042;-76
2021/12/06 08:37:01;;;;;;;122.13;51.30;;;2.60;99.90;;;;;;4975204;28;20389;-76
2021/12/06 08:39:26;;;;;;;115.55;49.63;;;2.60;99.90;;;;;;4988607;28;20100;-76
2021/12/06 08:41:52;;;;;;;117.30;48.35;;;2.60;99.90;;;;;;4994921;28;20034;-76
2021/12/06 08:44:18;;;;;;;125.75;49.63;;;2.60;99.90;;;;;;4996062;28;20061;-76
2021/12/06 08:46:44;;;;;;;118.18;47.88;;;2.60;99.90;;;;;;4987639;28;20492;-76
2021/12/06 08:49:11;;;;;;;106.25;45.50;;;2.60;99.90;;;;;;4994620;28;20092;-76
2021/12/06 08:51:46;;;;;;;110.15;46.70;;;2.60;99.90;;;;;;4992573;28;20029;-76
2021/12/06 08:54:16;;;;;;;107.85;45.45;;;2.60;99.90;;;;;;4972755;28;20108;-76
2021/12/06 08:56:43;;;;;;;101.50;44.05;;;2.60;99.90;;;;;;4995549;28;20073;-76
2021/12/06 08:59:09;;;;;;;92.80;40.90;;;2.60;99.90;;;;;;4990862;28;20414;-76
2021/12/06 09:01:36;;;;;;;89.25;39.25;;;2.60;99.90;;;;;;4975595;28;20619;-75
2021/12/06 09:04:03;;;;;;;88.70;39.75;;;2.50;99.90;;;;;;5008513;28;20034;-76
2021/12/06 09:06:29;;;;;;;90.57;39.35;;;2.60;99.90;;;;;;4995121;28;20053;-76
2021/12/06 09:08:55;;;;;;;86.25;36.85;;;2.60;99.90;;;;;;4991239;28;20038;-76
2021/12/06 09:11:22;;;;;;;71.35;32.40;;;2.60;99.90;;;;;;4982076;28;20504;-76
2021/12/06 09:13:47;;;;;;;71.47;33.17;;;2.60;99.90;;;;;;4980566;28;20180;-76
2021/12/06 09:16:14;;;;;;;76.60;33.28;;;2.60;99.90;;;;;;5012502;28;20540;-75
2021/12/06 09:18:41;;;;;;;67.65;32.13;;;2.60;99.90;;;;;;4981094;28;20041;-76
2021/12/06 09:21:13;;;;;;;75.10;32.13;;;2.60;99.90;;;;;;4997440;28;20088;-76
2021/12/06 09:23:41;;;;;;;72.35;31.58;;;2.60;99.90;;;;;;4964386;28;20038;-76
2021/12/06 09:26:07;;;;;;;68.68;31.77;;;2.70;99.90;;;;;;4977324;28;20034;-76
2021/12/06 09:28:33;;;;;;;74.60;32.53;;;2.70;99.90;;;;;;4995248;28;20046;-76
2021/12/06 09:31:01;;;;;;;66.57;32.20;;;2.70;99.90;;;;;;4996981;28;20064;-75
2021/12/06 09:33:28;;;;;;;68.07;32.03;;;2.70;99.90;;;;;;4995414;28;20104;-76
2021/12/06 09:35:58;;;;;;;63.10;29.95;;;2.80;99.90;;;;;;5006276;28;20034;-76
2021/12/06 09:38:33;;;;;;;64.68;29.73;;;2.80;99.90;;;;;;4963564;28;20038;-76
2021/12/06 09:40:59;;;;;;;62.40;30.38;;;2.80;99.90;;;;;;4967974;28;20136;-76
2021/12/06 09:43:25;;;;;;;67.80;31.23;;;2.80;99.90;;;;;;4975443;28;20045;-76
2021/12/06 09:45:53;;;;;;;62.53;29.80;;;2.80;99.90;;;;;;4995992;28;20045;-76
2021/12/06 09:48:19;;;;;;;58.60;28.65;;;2.80;99.90;;;;;;4996511;28;20045;-76
2021/12/06 09:50:54;;;;;;;59.10;27.45;;;2.80;99.90;;;;;;4992769;28;20041;-76
2021/12/06 09:53:23;;;;;;;58.10;27.92;;;2.80;99.90;;;;;;4970433;28;20045;-76
2021/12/06 09:55:51;;;;;;;52.72;26.92;;;2.90;99.90;;;;;;4975699;28;20117;-75
2021/12/06 09:58:19;;;;;;;58.15;27.67;;;2.90;99.90;;;;;;4991290;28;20038;-75
2021/12/06 10:00:51;;;;;;;53.28;27.38;;;2.90;99.90;;;;;;4992741;28;20045;-76
2021/12/06 10:03:23;;;;;;;57.95;28.13;;;2.90;99.90;;;;;;4981337;28;20047;-76
2021/12/06 10:05:49;;;;;;;55.45;27.13;;;2.90;99.90;;;;;;4973961;28;20117;-76
2021/12/06 10:08:15;;;;;;;53.80;26.65;;;2.90;99.90;;;;;;4989365;28;20056;-76
2021/12/06 10:10:42;;;;;;;52.80;26.95;;;2.90;99.90;;;;;;4984515;28;20034;-76
2021/12/06 10:13:08;;;;;;;42.45;23.90;;;3.00;99.90;;;;;;4986354;28;20044;-76
2021/12/06 10:15:34;;;;;;;45.88;24.25;;;3.10;99.90;;;;;;4988221;28;20552;-76
2021/12/06 10:18:01;;;;;;;41.80;23.38;;;3.00;99.90;;;;;;4980883;28;20045;-76
2021/12/06 10:20:30;;;;;;;41.40;23.70;;;3.00;99.90;;;;;;4972400;28;20080;-75
2021/12/06 10:22:56;;;;;;;40.40;23.10;;;3.00;99.90;;;;;;4987098;28;20046;-76
2021/12/06 10:25:36;;;;;;;38.45;21.50;;;3.00;99.90;;;;;;4967851;28;20068;-75
2021/12/06 10:28:05;;;;;;;40.28;22.08;;;3.00;99.90;;;;;;4988040;28;20045;-75
2021/12/06 10:30:34;;;;;;;36.63;20.88;;;3.00;99.90;;;;;;5009988;28;20492;-76
2021/12/06 10:33:28;;;;;;;36.40;20.17;;;3.00;99.90;;;;;;4985349;28;20046;-76
2021/12/06 10:35:58;;;;;;;42.90;21.10;;;3.00;99.90;;;;;;4964010;28;20054;-76
2021/12/06 10:38:33;;;;;;;37.42;20.83;;;3.00;99.90;;;;;;4992658;28;20133;-76
2021/12/06 10:41:19;;;;;;;36.53;21.73;;;3.00;99.90;;;;;;4982687;28;20088;-76
2021/12/06 10:44:01;;;;;;;40.25;21.85;;;3.00;99.90;;;;;;4985535;28;20037;-76
2021/12/06 10:46:28;;;;;;;37.72;21.65;;;3.00;99.90;;;;;;4978250;28;20057;-79
2021/12/06 10:48:57;;;;;;;39.28;20.90;;;3.00;99.90;;;;;;4992149;28;20555;-80
2021/12/06 10:51:24;;;;;;;43.95;22.67;;;3.00;99.90;;;;;;4962434;28;20112;-80
2021/12/06 10:54:01;;;;;;;42.78;23.13;;;3.10;99.90;;;;;;4999049;28;20038;-79
2021/12/06 10:56:42;;;;;;;47.25;23.98;;;3.10;99.90;;;;;;4988959;28;20057;-79
2021/12/06 10:59:21;;;;;;;43.78;22.75;;;3.20;99.90;;;;;;4980017;28;20034;-79
2021/12/06 11:01:49;;;;;;;44.80;23.40;;;3.20;99.90;;;;;;4987760;28;20091;-79
2021/12/06 11:04:18;;;;;;;50.00;24.40;;;3.20;99.90;;;;;;4983413;28;20126;-80
2021/12/06 11:06:47;;;;;;;52.60;25.90;;;3.30;99.90;;;;;;4971037;28;20098;-79
2021/12/06 11:09:41;;;;;;;50.50;25.67;;;3.30;99.90;;;;;;4976683;28;20132;-79
2021/12/06 11:12:08;;;;;;;49.45;24.23;;;3.30;99.90;;;;;;4969484;28;20042;-75
2021/12/06 11:14:37;;;;;;;48.50;25.33;;;3.30;99.90;;;;;;4982185;28;20457;-75
2021/12/06 11:17:11;;;;;;;49.58;24.58;;;3.40;99.90;;;;;;4979172;28;20085;-75
2021/12/06 11:19:38;;;;;;;48.15;24.25;;;3.40;99.90;;;;;;4972177;28;20034;-75
2021/12/06 11:22:03;;;;;;;44.63;24.08;;;3.40;99.90;;;;;;4978308;28;20034;-76
2021/12/06 11:24:39;;;;;;;40.97;22.02;;;3.40;99.90;;;;;;4976683;28;20412;-75
2021/12/06 11:27:10;;;;;;;41.30;22.20;;;3.40;99.90;;;;;;4979718;28;20034;-75
2021/12/06 11:29:45;;;;;;;42.75;22.73;;;3.40;99.90;;;;;;4979308;28;20081;-75
2021/12/06 11:32:20;;;;;;;45.60;24.48;;;3.50;99.90;;;;;;4993305;28;20095;-75
2021/12/06 11:34:54;;;;;;;41.05;22.65;;;3.50;99.90;;;;;;4994601;28;20046;-75
2021/12/06 11:37:27;;;;;;;44.20;21.98;;;3.50;99.90;;;;;;4994626;28;20073;-75
2021/12/06 11:40:17;;;;;;;43.67;22.83;;;3.50;99.90;;;;;;4993828;28;20046;-75
2021/12/06 11:43:07;;;;;;;42.38;22.08;;;3.50;99.90;;;;;;4986476;28;20031;-76
2021/12/06 11:45:46;;;;;;;52.03;24.00;;;3.50;99.90;;;;;;4984839;28;20042;-76
2021/12/06 11:48:24;;;;;;;47.17;23.45;;;3.50;99.90;;;;;;4978995;28;20052;-75
2021/12/06 11:51:05;;;;;;;50.38;24.00;;;3.50;99.90;;;;;;4989373;28;20164;-76
2021/12/06 11:53:44;;;;;;;47.97;23.02;;;3.60;99.90;;;;;;4981443;28;20497;-75
2021/12/06 11:56:17;;;;;;;50.10;24.00;;;3.60;99.90;;;;;;4987194;28;20046;-75
2021/12/06 11:58:47;;;;;;;48.70;23.98;;;3.60;99.90;;;;;;4985270;28;20037;-76
2021/12/06 12:01:16;;;;;;;44.53;23.20;;;3.60;99.90;;;;;;4985354;28;20030;-75
2021/12/06 12:03:45;;;;;;;47.38;23.38;;;3.60;99.90;;;;;;4983755;28;20163;-75
2021/12/06 12:06:22;;;;;;;48.42;24.63;;;3.60;99.90;;;;;;4989059;28;20214;-76
2021/12/06 12:09:05;;;;;;;55.47;24.92;;;3.60;99.90;;;;;;4971847;28;20053;-75
2021/12/06 12:11:31;;;;;;;54.20;26.02;;;3.60;99.90;;;;;;4986606;28;20092;-76
2021/12/06 12:13:58;;;;;;;54.67;26.77;;;3.60;99.90;;;;;;4979977;28;20126;-75
2021/12/06 12:16:24;;;;;;;55.13;26.60;;;3.60;99.90;;;;;;4986525;28;20042;-75
2021/12/06 12:18:50;;;;;;;54.72;26.80;;;3.60;99.90;;;;;;4990084;28;20310;-76
2021/12/06 12:21:16;;;;;;;59.03;28.00;;;3.60;99.90;;;;;;4983520;28;20035;-75
2021/12/06 12:23:43;;;;;;;61.15;28.88;;;3.70;99.90;;;;;;4984603;28;20050;-76
2021/12/06 12:26:13;;;;;;;57.17;27.77;;;3.60;99.90;;;;;;4981966;28;20088;-76
2021/12/06 12:29:11;;;;;;;58.95;27.73;;;3.70;99.90;;;;;;4984479;28;20065;-76
2021/12/06 12:31:38;;;;;;;69.93;31.05;;;3.70;99.90;;;;;;5006914;28;20491;-75
2021/12/06 12:34:03;;;;;;;69.60;31.45;;;3.60;99.90;;;;;;4989057;28;20040;-75
2021/12/06 12:36:34;;;;;;;74.63;33.30;;;3.60;99.90;;;;;;4989886;28;20046;-77
2021/12/06 12:39:00;;;;;;;76.60;33.67;;;3.60;99.90;;;;;;4991992;28;20045;-75
2021/12/06 12:41:28;;;;;;;68.55;33.05;;;3.60;99.90;;;;;;4988158;28;20130;-76
2021/12/06 12:44:04;;;;;;;66.97;31.15;;;3.60;99.90;;;;;;4989406;28;20145;-79
2021/12/06 12:46:39;;;;;;;68.00;31.70;;;3.60;99.90;;;;;;5007442;28;20041;-78
2021/12/06 12:49:12;;;;;;;75.10;32.90;;;3.60;99.90;;;;;;4989603;28;20088;-78
2021/12/06 12:51:55;;;;;;;69.20;31.80;;;3.60;99.90;;;;;;4968785;28;20097;-79
2021/12/06 12:54:29;;;;;;;75.70;34.60;;;3.60;99.90;;;;;;4988987;28;20050;-77
2021/12/06 12:57:03;;;;;;;84.55;38.08;;;3.60;99.90;;;;;;4993035;28;20037;-78
2021/12/06 12:59:42;;;;;;;76.35;36.35;;;3.60;99.90;;;;;;4984560;28;20042;-79